Ostrica, Louisiana
Current Conditions -  °F | °C
As of 11:51 AM on Monday 26 Jan 2015 (Local Time) from KBVE Reporting Station
Clear Clear  
Wind Chill: 12°   Ceiling: Unl
Heat Index: 12°   Visibility: 10mi
Dew Point:   Wind: 14mph
Humidity: 57%   Direction: 330°NNW
Pressure: 30.11"   Gusts: NA
Location:  29.2996°N, 89.4367°W
Report Text: KBVE 261751Z AUTO 33012KT 10SM CLR 12/04 A3011 RMK AO2 SLP195 T01220039 10122 20089 58009
Loading
Personal Weather Stations






























Interactive Weather Map New forecast layout! Learn more

10-Day Weather Forecast

Advertisements
Track Severe Weather on mobile